Time;durP1;ratioP1;P1;durP2;ratioP2;P2;SDS_P1;SDS_P2;PMS_P1;PMS_P2;Temp;Humidity;BMP_temperature;BMP_pressure;BME280_temperature;BME280_humidity;BME280_pressure;Samples;Min_cycle;Max_cycle;Signal;HPM_P1;HPM_P2
2021/08/01 00:00:48;;;;;;;5.40;2.78;;;;;;;21.90;47.28;99571.94;4931045;28;96708;-82
2021/08/01 00:03:13;;;;;;;10.52;3.60;;;;;;;21.92;47.50;99578.84;4933144;28;96794;-82
2021/08/01 00:05:39;;;;;;;19.58;3.85;;;;;;;21.93;47.62;99571.66;4931572;28;98054;-82
2021/08/01 00:08:04;;;;;;;7.75;2.65;;;;;;;21.90;47.26;99579.97;4915502;28;99979;-81
2021/08/01 00:10:30;;;;;;;11.40;2.78;;;;;;;21.89;47.05;99576.47;4932738;28;96581;-84
2021/08/01 00:12:57;;;;;;;7.07;2.67;;;;;;;21.83;47.08;99569.00;4915608;28;96908;-81
2021/08/01 00:15:22;;;;;;;9.13;2.53;;;;;;;21.73;47.38;99568.19;4915711;28;98009;-82
2021/08/01 00:17:48;;;;;;;7.15;2.83;;;;;;;21.81;47.30;99560.28;4931634;28;98361;-82
2021/08/01 00:20:13;;;;;;;10.75;2.47;;;;;;;21.70;47.23;99566.66;4915396;28;96556;-82
2021/08/01 00:22:39;;;;;;;10.13;2.70;;;;;;;21.77;46.70;99558.91;4931331;28;96879;-81
2021/08/01 00:25:05;;;;;;;10.10;2.88;;;;;;;21.65;47.17;99560.03;4914873;28;101811;-80
2021/08/01 00:27:33;;;;;;;11.13;2.47;;;;;;;21.65;47.38;99557.38;4931218;28;101122;-85
2021/08/01 00:29:59;;;;;;;7.10;2.92;;;;;;;21.62;47.13;99549.66;4914861;28;96903;-82
2021/08/01 00:32:25;;;;;;;9.23;2.42;;;;;;;21.54;47.43;99553.00;4931709;28;96621;-82
2021/08/01 00:34:51;;;;;;;13.10;2.90;;;;;;;21.49;47.59;99565.94;4930929;28;97964;-83
2021/08/01 00:37:16;;;;;;;8.57;2.33;;;;;;;21.46;47.75;99560.88;4932862;28;97893;-81
2021/08/01 00:39:42;;;;;;;10.57;2.60;;;;;;;21.41;48.04;99558.66;4914855;28;97707;-82
2021/08/01 00:42:11;;;;;;;7.72;2.90;;;;;;;21.38;47.89;99555.38;4900135;28;96892;-81
2021/08/01 00:44:36;;;;;;;5.93;2.50;;;;;;;21.31;48.60;99565.75;4914394;28;101148;-82
2021/08/01 00:47:03;;;;;;;10.00;2.60;;;;;;;21.37;48.36;99549.22;4932554;28;97948;-82
2021/08/01 00:49:29;;;;;;;12.35;2.90;;;;;;;21.35;48.54;99550.31;4915054;28;96606;-82
2021/08/01 00:51:55;;;;;;;5.90;2.40;;;;;;;21.21;48.92;99555.09;4930783;28;96843;-82
2021/08/01 00:54:25;;;;;;;13.70;3.25;;;;;;;21.28;48.68;99547.34;4914765;28;101136;-82
2021/08/01 00:56:52;;;;;;;11.50;2.63;;;;;;;21.17;49.15;99542.97;4898756;28;101084;-82
2021/08/01 00:59:18;;;;;;;8.40;2.45;;;;;;;21.10;49.65;99544.53;4915016;28;96570;-82
2021/08/01 01:02:01;;;;;;;8.05;2.63;;;;;;;21.25;49.42;99548.47;4914434;28;97072;-82
2021/08/01 01:04:36;;;;;;;10.60;3.15;;;;;;;21.20;49.42;99540.03;4915329;28;98044;-83
2021/08/01 01:07:09;;;;;;;10.95;2.88;;;;;;;21.14;49.86;99539.75;4915196;28;101399;-83
2021/08/01 01:10:09;;;;;;;12.52;3.60;;;;;;;21.08;49.72;99541.16;4930750;28;96610;-87
2021/08/01 01:13:04;;;;;;;7.05;2.83;;;;;;;21.16;49.70;99524.47;4930418;28;96809;-83
2021/08/01 01:15:31;;;;;;;5.07;2.30;;;;;;;20.97;49.78;99522.59;4923666;28;98456;-82
2021/08/01 01:17:59;;;;;;;10.55;3.15;;;;;;;21.12;49.62;99520.34;4898105;28;100730;-82
2021/08/01 01:20:37;;;;;;;8.23;2.72;;;;;;;21.13;49.34;99519.41;4911017;28;96767;-82
2021/08/01 01:23:05;;;;;;;14.68;2.70;;;;;;;21.12;49.69;99525.69;4927648;28;96629;-82
2021/08/01 01:25:59;;;;;;;9.10;2.88;;;;;;;21.07;50.10;99533.28;4912673;28;97046;-83
2021/08/01 01:28:53;;;;;;;7.72;3.03;;;;;;;20.95;50.15;99528.09;4927455;28;101801;-83
2021/08/01 01:31:26;;;;;;;8.80;3.30;;;;;;;20.94;50.46;99521.06;4911469;28;97054;-82
2021/08/01 01:34:16;;;;;;;8.40;2.78;;;;;;;20.92;50.51;99519.53;4927428;28;96808;-82
2021/08/01 01:36:43;;;;;;;12.23;2.60;;;;;;;20.96;50.48;99524.41;4926863;28;101722;-83
2021/08/01 01:39:13;;;;;;;6.75;2.95;;;;;;;20.91;50.28;99521.31;4927251;28;102152;-82
2021/08/01 01:42:17;;;;;;;9.50;2.70;;;;;;;20.85;51.02;99521.03;4915805;28;96597;-82
2021/08/01 01:44:49;;;;;;;4.72;2.45;;;;;;;20.85;51.44;99519.19;4926218;28;96700;-83
2021/08/01 01:47:16;;;;;;;8.00;2.97;;;;;;;20.86;51.19;99515.56;4911345;28;98102;-82
2021/08/01 01:49:43;;;;;;;9.38;3.20;;;;;;;20.75;51.80;99521.03;4910489;28;101135;-83
2021/08/01 01:52:13;;;;;;;8.85;3.00;;;;;;;20.77;51.46;99525.25;4911327;28;96739;-82
2021/08/01 01:54:42;;;;;;;6.18;2.83;;;;;;;20.72;51.70;99523.97;4926409;28;96843;-80
2021/08/01 01:57:09;;;;;;;12.23;2.95;;;;;;;20.83;51.58;99531.84;4927214;28;98222;-83
2021/08/01 01:59:37;;;;;;;8.15;2.50;;;;;;;20.95;50.90;99535.25;4911311;28;100829;-83
2021/08/01 02:02:08;;;;;;;7.03;2.95;;;;;;;20.94;50.77;99533.53;4911307;28;96573;-83
2021/08/01 02:04:34;;;;;;;6.85;2.70;;;;;;;20.73;51.64;99541.63;4927519;28;97883;-82
2021/08/01 02:07:20;;;;;;;7.15;2.80;;;;;;;20.64;51.57;99527.28;4923231;28;97160;-81
2021/08/01 02:10:17;;;;;;;7.97;2.60;;;;;;;20.65;51.88;99525.47;4913313;28;101008;-82
2021/08/01 02:12:51;;;;;;;8.02;2.90;;;;;;;20.59;51.51;99524.19;4913340;28;96573;-82
2021/08/01 02:15:31;;;;;;;3.80;2.60;;;;;;;20.66;51.46;99532.50;4929332;28;97015;-81
2021/08/01 02:18:02;;;;;;;7.10;2.55;;;;;;;20.57;51.67;99520.84;4914155;28;97877;-82
2021/08/01 02:20:39;;;;;;;6.68;3.15;;;;;;;20.42;52.23;99519.47;4914003;28;100766;-82
2021/08/01 02:23:16;;;;;;;5.97;3.22;;;;;;;20.37;52.42;99524.38;4914435;28;96648;-82
2021/08/01 02:25:42;;;;;;;5.85;2.80;;;;;;;20.42;52.21;99523.00;4929918;28;96765;-83
2021/08/01 02:28:09;;;;;;;12.95;3.72;;;;;;;20.49;52.26;99528.63;4929797;28;100921;-82
2021/08/01 02:30:35;;;;;;;9.13;3.08;;;;;;;20.45;52.30;99532.50;4929952;28;101400;-82
2021/08/01 02:33:01;;;;;;;7.05;3.28;;;;;;;20.48;52.10;99532.28;4929281;28;96619;-82
2021/08/01 02:35:28;;;;;;;8.43;2.85;;;;;;;20.38;52.37;99528.72;4913996;28;97261;-82
2021/08/01 02:37:57;;;;;;;8.88;3.88;;;;;;;20.31;52.54;99526.59;4913419;28;101621;-82
2021/08/01 02:40:25;;;;;;;10.05;2.80;;;;;;;20.30;52.39;99537.38;4897805;28;101439;-82
2021/08/01 02:42:52;;;;;;;8.18;3.30;;;;;;;20.18;52.67;99544.59;4928811;28;96834;-82
2021/08/01 02:45:18;;;;;;;6.47;2.38;;;;;;;20.10;53.02;99531.09;4930063;28;97537;-81
2021/08/01 02:47:45;;;;;;;12.20;2.85;;;;;;;19.96;53.72;99531.47;4929329;28;98059;-83
2021/08/01 02:50:11;;;;;;;6.45;2.45;;;;;;;20.06;53.30;99540.34;4930217;28;97890;-81
2021/08/01 02:53:12;;;;;;;9.40;2.88;;;;;;;19.95;53.32;99535.91;4929724;28;96603;-82
2021/08/01 02:55:42;;;;;;;7.57;2.60;;;;;;;19.77;53.73;99535.66;4913095;28;96839;-82
2021/08/01 02:58:08;;;;;;;5.55;2.72;;;;;;;19.76;53.73;99539.31;4928849;28;101944;-83
2021/08/01 03:00:46;;;;;;;12.57;3.35;;;;;;;19.74;53.70;99538.59;4928067;28;101382;-82
2021/08/01 03:03:17;;;;;;;11.35;2.70;;;;;;;19.57;54.29;99536.47;4929609;28;96660;-82
2021/08/01 03:05:43;;;;;;;10.32;2.65;;;;;;;19.70;54.32;99536.34;4913761;28;96911;-82
2021/08/01 03:08:13;;;;;;;13.77;3.00;;;;;;;19.76;54.08;99536.66;4929696;28;100369;-82
2021/08/01 03:10:45;;;;;;;8.32;2.83;;;;;;;19.77;54.33;99537.50;4913148;28;101103;-82
2021/08/01 03:13:12;;;;;;;11.30;3.13;;;;;;;19.87;53.94;99538.41;4929746;28;96710;-82
2021/08/01 03:15:38;;;;;;;11.75;3.17;;;;;;;19.87;53.95;99541.91;4913646;28;96995;-82
2021/08/01 03:18:07;;;;;;;6.55;3.33;;;;;;;19.89;53.97;99545.28;4897065;28;101668;-81
2021/08/01 03:20:33;;;;;;;8.38;3.25;;;;;;;19.80;54.28;99545.22;4913207;28;101088;-83
2021/08/01 03:23:16;;;;;;;6.03;3.10;;;;;;;19.74;54.61;99557.22;4927214;28;96572;-81
2021/08/01 03:26:05;;;;;;;5.65;3.03;;;;;;;19.68;54.51;99541.78;4916150;28;98207;-81
2021/08/01 03:28:32;;;;;;;9.65;2.90;;;;;;;19.71;54.51;99540.69;4929093;28;100815;-81
2021/08/01 03:30:58;;;;;;;6.30;2.88;;;;;;;19.55;55.01;99527.78;4928576;28;101485;-81
2021/08/01 03:33:25;;;;;;;7.88;3.22;;;;;;;19.49;55.48;99536.25;4929023;28;96651;-82
2021/08/01 03:35:51;;;;;;;9.98;3.22;;;;;;;19.52;55.36;99528.88;4912720;28;96775;-82
2021/08/01 03:38:37;;;;;;;5.75;3.10;;;;;;;19.63;55.29;99530.63;4915288;28;98648;-82
2021/08/01 03:41:21;;;;;;;8.73;3.05;;;;;;;19.67;55.05;99532.94;4915324;28;97170;-81
2021/08/01 03:43:46;;;;;;;6.20;3.28;;;;;;;19.67;54.65;99537.44;4928189;28;96882;-87
2021/08/01 03:46:12;;;;;;;8.80;2.85;;;;;;;19.75;54.93;99539.44;4897240;28;96835;-82
2021/08/01 03:48:37;;;;;;;10.07;3.30;;;;;;;19.77;55.12;99541.00;4927493;28;101513;-84
2021/08/01 03:51:03;;;;;;;6.80;3.10;;;;;;;19.77;54.95;99543.66;4912311;28;101118;-81
2021/08/01 03:53:30;;;;;;;10.25;2.80;;;;;;;20.02;53.79;99539.75;4928848;28;96885;-81
2021/08/01 03:55:56;;;;;;;8.05;2.80;;;;;;;19.92;54.27;99541.50;4928434;28;96829;-81
2021/08/01 03:58:21;;;;;;;7.20;3.10;;;;;;;19.75;54.91;99539.44;4912904;28;98167;-81
2021/08/01 04:00:48;;;;;;;6.95;2.67;;;;;;;19.84;54.72;99536.84;4912750;28;97877;-82
2021/08/01 04:03:14;;;;;;;8.70;3.10;;;;;;;19.96;54.33;99531.47;4929015;28;96673;-82
2021/08/01 04:05:40;;;;;;;5.82;2.90;;;;;;;19.90;54.57;99517.69;4929108;28;96859;-82
2021/08/01 04:08:05;;;;;;;7.38;2.60;;;;;;;19.88;54.83;99521.44;4895922;28;100884;-82
2021/08/01 04:10:31;;;;;;;6.22;3.00;;;;;;;19.87;54.59;99530.44;4912601;28;100894;-82
2021/08/01 04:12:57;;;;;;;6.72;3.03;;;;;;;20.04;54.31;99535.16;4927606;28;97942;-82
2021/08/01 04:15:22;;;;;;;10.73;4.63;;;;;;;20.09;54.35;99534.75;4928712;28;96851;-82
2021/08/01 04:17:47;;;;;;;12.57;3.33;;;;;;;20.12;54.44;99530.00;4912599;28;98053;-82
2021/08/01 04:20:15;;;;;;;5.63;2.90;;;;;;;20.12;54.49;99532.66;4928173;28;97939;-81
2021/08/01 04:22:42;;;;;;;8.75;4.22;;;;;;;20.31;54.05;99539.06;4912542;28;96600;-82
2021/08/01 04:25:08;;;;;;;9.82;2.67;;;;;;;20.32;53.96;99538.09;4928204;28;97025;-81
2021/08/01 04:27:33;;;;;;;7.25;3.05;;;;;;;20.31;53.96;99539.91;4912184;28;101640;-82
2021/08/01 04:29:59;;;;;;;5.60;2.88;;;;;;;20.37;54.13;99533.22;4927926;28;97925;-81
2021/08/01 04:32:24;;;;;;;7.55;2.90;;;;;;;20.35;54.07;99532.50;4928369;28;97089;-81
2021/08/01 04:34:50;;;;;;;8.65;3.55;;;;;;;20.33;54.20;99524.63;4912687;28;96920;-81
2021/08/01 04:37:15;;;;;;;7.60;3.92;;;;;;;20.31;54.53;99533.75;4911158;28;98232;-82
2021/08/01 04:39:41;;;;;;;5.07;2.95;;;;;;;20.28;54.37;99532.19;4911692;28;101205;-82
2021/08/01 04:42:06;;;;;;;9.18;3.13;;;;;;;20.31;54.12;99521.25;4911857;28;97213;-82
2021/08/01 04:44:32;;;;;;;5.43;2.80;;;;;;;20.22;54.49;99522.06;4911898;28;97092;-82
2021/08/01 04:46:57;;;;;;;10.65;3.45;;;;;;;20.38;53.74;99531.38;4911373;28;101931;-83
2021/08/01 04:49:23;;;;;;;8.68;3.45;;;;;;;20.22;53.79;99522.06;4928245;28;97956;-82
2021/08/01 04:51:48;;;;;;;10.30;3.20;;;;;;;20.30;54.21;99524.03;4928317;28;96916;-82
2021/08/01 04:54:14;;;;;;;11.90;4.68;;;;;;;20.07;54.41;99510.91;4895796;28;97249;-82
2021/08/01 04:56:44;;;;;;;12.48;2.92;;;;;;;20.10;54.65;99512.44;4911840;28;101427;-82
2021/08/01 04:59:10;;;;;;;6.80;2.93;;;;;;;20.22;54.39;99508.75;4927536;28;97924;-82
2021/08/01 05:01:35;;;;;;;6.90;3.22;;;;;;;20.07;53.95;99510.91;4911702;28;96551;-82
2021/08/01 05:04:01;;;;;;;8.82;2.90;;;;;;;19.95;54.26;99495.97;4895062;28;97425;-82
2021/08/01 05:06:27;;;;;;;9.90;2.90;;;;;;;20.16;54.07;99487.09;4927723;28;99591;-82
2021/08/01 05:08:52;;;;;;;6.72;3.00;;;;;;;20.09;54.43;99490.28;4927683;28;101164;-82
2021/08/01 05:11:17;;;;;;;6.57;2.95;;;;;;;20.19;54.25;99492.16;4911207;28;96922;-82
2021/08/01 05:13:43;;;;;;;6.95;2.80;;;;;;;20.38;53.70;99486.06;4911678;28;96835;-82
2021/08/01 05:16:32;;;;;;;9.32;2.92;;;;;;;20.58;53.51;99479.84;4911276;28;98205;-81
2021/08/01 05:18:58;;;;;;;6.47;2.75;;;;;;;20.88;53.16;99472.75;4913023;28;98384;-85
2021/08/01 05:21:23;;;;;;;6.10;2.90;;;;;;;21.19;52.58;99478.81;4927830;28;96591;-81
2021/08/01 05:23:49;;;;;;;5.63;2.95;;;;;;;21.38;51.59;99478.84;4927926;28;96822;-81
2021/08/01 05:26:15;;;;;;;7.43;2.70;;;;;;;21.29;52.00;99482.31;4926769;28;97429;-81
2021/08/01 05:28:41;;;;;;;9.05;2.85;;;;;;;21.34;52.02;99473.88;4911295;28;98120;-81
2021/08/01 05:31:06;;;;;;;6.43;2.92;;;;;;;21.41;51.77;99470.56;4911021;28;97058;-81
2021/08/01 05:33:32;;;;;;;10.10;2.97;;;;;;;21.48;51.81;99470.81;4911492;28;96882;-81
2021/08/01 05:35:57;;;;;;;5.32;2.72;;;;;;;21.43;51.90;99467.72;4927134;28;101209;-84
2021/08/01 05:38:23;;;;;;;6.40;2.95;;;;;;;21.50;51.75;99460.84;4927840;28;97730;-81
2021/08/01 05:40:48;;;;;;;5.68;2.72;;;;;;;21.48;51.64;99455.63;4911295;28;96779;-81
2021/08/01 05:43:14;;;;;;;4.60;2.65;;;;;;;21.45;52.29;99450.59;4929732;28;97073;-81
2021/08/01 05:45:40;;;;;;;8.00;2.80;;;;;;;21.43;52.41;99441.03;4898616;28;97430;-81
2021/08/01 05:48:05;;;;;;;11.32;3.33;;;;;;;21.30;52.56;99446.66;4929962;28;101032;-82
2021/08/01 05:50:31;;;;;;;6.18;2.70;;;;;;;21.19;52.56;99444.13;4930587;28;96601;-81
2021/08/01 05:52:56;;;;;;;6.90;3.00;;;;;;;21.37;52.21;99442.44;4930602;28;96962;-81
2021/08/01 05:55:22;;;;;;;8.45;2.97;;;;;;;21.31;52.27;99444.81;4929932;28;98767;-81
2021/08/01 05:57:47;;;;;;;7.93;2.72;;;;;;;21.34;52.49;99444.53;4930071;28;101157;-81
2021/08/01 06:00:13;;;;;;;6.95;2.63;;;;;;;21.40;52.56;99433.31;4913584;28;97002;-81
2021/08/01 06:02:39;;;;;;;6.45;2.83;;;;;;;21.38;52.86;99441.47;4930526;28;96910;-82
2021/08/01 06:05:05;;;;;;;7.15;2.80;;;;;;;21.45;52.57;99442.56;4913765;28;101069;-82
2021/08/01 06:07:30;;;;;;;5.50;3.10;;;;;;;21.48;52.80;99447.63;4914649;28;101199;-82
2021/08/01 06:09:56;;;;;;;6.55;2.65;;;;;;;21.63;52.61;99448.00;4930911;28;96794;-82
2021/08/01 06:12:21;;;;;;;9.20;3.08;;;;;;;21.59;52.38;99453.81;4930145;28;97121;-82
2021/08/01 06:14:48;;;;;;;8.02;3.10;;;;;;;21.52;52.59;99458.84;4930093;28;98016;-82
2021/08/01 06:17:14;;;;;;;11.05;2.60;;;;;;;21.55;52.38;99469.25;4929950;28;97969;-82
2021/08/01 06:19:40;;;;;;;6.05;2.80;;;;;;;21.59;52.47;99473.34;4914084;28;97088;-82
2021/08/01 06:22:05;;;;;;;7.30;2.90;;;;;;;21.64;52.54;99476.44;4929997;28;96607;-83
2021/08/01 06:24:30;;;;;;;7.22;2.40;;;;;;;21.65;52.60;99466.56;4897831;28;99928;-81
2021/08/01 06:26:56;;;;;;;3.63;2.15;;;;;;;21.55;53.07;99468.41;4929959;28;101514;-82
2021/08/01 06:29:22;;;;;;;6.95;2.72;;;;;;;21.46;52.58;99454.09;4913549;28;96948;-82
2021/08/01 06:31:48;;;;;;;4.88;2.70;;;;;;;21.41;52.00;99461.69;4930674;28;96977;-82
2021/08/01 06:34:14;;;;;;;6.60;2.42;;;;;;;21.52;51.25;99458.84;4929734;28;98432;-82
2021/08/01 06:36:39;;;;;;;6.78;3.08;;;;;;;21.50;51.05;99459.97;4915315;28;97995;-82
2021/08/01 06:39:06;;;;;;;8.45;2.63;;;;;;;21.60;50.96;99460.81;4896781;28;96631;-85
2021/08/01 06:41:31;;;;;;;8.35;2.85;;;;;;;21.69;50.85;99460.78;4930045;28;96823;-82
2021/08/01 06:43:57;;;;;;;7.57;2.92;;;;;;;21.57;50.77;99461.09;4913218;28;97939;-82
2021/08/01 06:46:22;;;;;;;6.15;2.78;;;;;;;21.53;51.05;99465.06;4929331;28;102017;-81
2021/08/01 06:48:48;;;;;;;5.65;2.47;;;;;;;21.41;51.08;99457.22;4914221;28;96555;-82
2021/08/01 06:51:13;;;;;;;5.25;2.47;;;;;;;21.33;51.22;99467.72;4913362;28;96746;-83
2021/08/01 06:53:39;;;;;;;7.20;2.97;;;;;;;21.21;51.44;99464.34;4929208;28;101353;-82
2021/08/01 06:56:06;;;;;;;10.15;2.63;;;;;;;21.18;51.52;99467.31;4930153;28;97532;-85
2021/08/01 06:58:32;;;;;;;3.75;2.58;;;;;;;21.15;51.74;99464.91;4913900;28;97133;-82
2021/08/01 07:00:57;;;;;;;6.53;3.03;;;;;;;21.21;51.93;99466.19;4929950;28;97156;-82
2021/08/01 07:03:26;;;;;;;5.63;2.95;;;;;;;21.14;52.37;99468.53;4928426;28;101338;-81
2021/08/01 07:05:52;;;;;;;7.78;2.65;;;;;;;21.05;52.45;99464.06;4929452;28;97419;-82
2021/08/01 07:08:18;;;;;;;13.70;2.80;;;;;;;21.17;52.31;99467.44;4896995;28;97066;-83
2021/08/01 07:10:43;;;;;;;4.05;2.25;;;;;;;21.10;52.72;99471.66;4881146;28;97256;-81
2021/08/01 07:13:09;;;;;;;5.45;2.53;;;;;;;21.19;53.01;99484.16;4935933;28;101415;-82
2021/08/01 07:15:37;;;;;;;7.47;3.08;;;;;;;21.22;53.50;99483.88;4932510;28;101674;-82
2021/08/01 07:18:03;;;;;;;8.82;3.33;;;;;;;21.11;54.43;99476.00;4916550;28;97033;-81
2021/08/01 07:20:29;;;;;;;8.77;2.85;;;;;;;21.21;54.19;99480.34;4932475;28;96642;-82
2021/08/01 07:22:56;;;;;;;11.43;3.17;;;;;;;21.17;54.74;99486.94;4892091;28;102181;-82
2021/08/01 07:25:23;;;;;;;6.38;2.58;;;;;;;21.25;54.80;99484.41;4914830;28;101508;-83
2021/08/01 07:27:52;;;;;;;6.55;2.47;;;;;;;21.21;55.86;99491.03;4899349;28;97962;-82
2021/08/01 07:30:18;;;;;;;12.52;3.38;;;;;;;21.11;56.46;99484.00;4905865;28;96938;-82
2021/08/01 07:32:44;;;;;;;9.48;2.80;;;;;;;21.00;57.69;99476.97;4887018;28;101685;-82
2021/08/01 07:35:10;;;;;;;8.10;3.10;;;;;;;20.86;58.82;99464.91;4905350;28;98519;-84
2021/08/01 07:37:36;;;;;;;5.13;2.97;;;;;;;20.83;59.29;99445.63;4916584;28;96967;-83
2021/08/01 07:40:02;;;;;;;6.00;3.13;;;;;;;20.70;60.14;99449.41;4912081;28;97002;-84
2021/08/01 07:42:27;;;;;;;7.75;2.78;;;;;;;20.80;59.92;99446.78;4928004;28;101420;-83
2021/08/01 07:44:55;;;;;;;5.78;3.22;;;;;;;20.95;59.54;99440.06;4913094;28;98057;-84
2021/08/01 07:47:23;;;;;;;6.95;2.85;;;;;;;20.94;59.83;99434.84;4923256;28;97078;-83
2021/08/01 07:49:50;;;;;;;6.50;2.80;;;;;;;21.11;59.17;99431.47;4928935;28;96968;-84
2021/08/01 07:52:16;;;;;;;12.45;6.53;;;;;;;21.21;59.12;99431.50;4929468;28;98117;-82
2021/08/01 07:54:42;;;;;;;11.15;4.97;;;;;;;20.96;60.55;99428.38;4913655;28;98427;-83
2021/08/01 07:57:23;;;;;;;7.50;3.58;;;;;;;20.91;61.01;99429.78;4930433;28;96787;-87
2021/08/01 07:59:49;;;;;;;11.77;4.25;;;;;;;21.02;61.07;99419.81;4928881;28;97017;-86
2021/08/01 08:02:18;;;;;;;7.75;3.85;;;;;;;21.18;60.61;99419.25;4926857;28;98048;-84
2021/08/01 08:04:43;;;;;;;7.50;4.20;;;;;;;21.30;59.88;99421.78;4911513;28;98169;-83
2021/08/01 08:07:09;;;;;;;7.40;4.40;;;;;;;21.21;60.08;99421.66;4928287;28;97225;-86
2021/08/01 08:09:34;;;;;;;8.90;3.70;;;;;;;21.28;59.84;99431.75;4903591;28;97344;-83
2021/08/01 08:12:00;;;;;;;5.28;3.30;;;;;;;21.04;60.15;99433.03;4927453;28;101707;-87
2021/08/01 08:14:25;;;;;;;6.63;2.97;;;;;;;20.92;59.25;99419.00;4902138;28;101879;-85
2021/08/01 08:16:51;;;;;;;5.00;2.88;;;;;;;20.91;58.83;99430.63;4919510;28;97924;-82
2021/08/01 08:19:16;;;;;;;6.25;2.63;;;;;;;20.80;59.50;99433.44;4903533;28;98090;-82
2021/08/01 08:21:42;;;;;;;7.88;2.90;;;;;;;20.88;59.17;99435.41;4903776;28;101335;-84
2021/08/01 08:24:08;;;;;;;8.52;2.90;;;;;;;20.97;58.81;99437.22;4922099;28;101488;-90
2021/08/01 08:26:33;;;;;;;5.78;2.90;;;;;;;20.84;59.76;99445.50;4927365;28;96890;-84
2021/08/01 08:28:59;;;;;;;6.25;2.65;;;;;;;20.87;58.96;99447.91;4926679;28;97412;-81
2021/08/01 08:31:24;;;;;;;5.93;2.55;;;;;;;20.74;59.11;99445.50;4904853;28;101460;-82
2021/08/01 08:33:50;;;;;;;5.18;2.85;;;;;;;20.68;59.81;99437.19;4908696;28;101355;-82
2021/08/01 08:36:16;;;;;;;6.80;3.05;;;;;;;20.77;60.00;99439.06;4923779;28;97858;-83
2021/08/01 08:38:42;;;;;;;7.65;3.33;;;;;;;20.67;60.44;99443.53;4895855;28;97856;-82
2021/08/01 08:41:16;;;;;;;5.78;3.17;;;;;;;20.76;59.23;99450.69;4916634;28;101058;-83
2021/08/01 08:43:42;;;;;;;5.55;3.10;;;;;;;20.73;59.57;99459.81;4895007;28;101302;-82
2021/08/01 08:46:11;;;;;;;7.78;3.10;;;;;;;20.64;60.49;99462.47;4914664;28;96849;-81
2021/08/01 08:48:40;;;;;;;5.30;2.90;;;;;;;20.67;60.88;99467.53;4926522;28;97057;-84
2021/08/01 08:51:12;;;;;;;5.78;3.08;;;;;;;20.66;61.25;99468.50;4895398;28;101767;-83
2021/08/01 08:53:48;;;;;;;6.25;3.30;;;;;;;20.69;60.86;99474.41;4891993;28;101544;-83
2021/08/01 08:56:15;;;;;;;5.20;3.35;;;;;;;20.60;61.59;99471.72;4892262;28;96936;-84
2021/08/01 08:58:41;;;;;;;5.75;2.50;;;;;;;20.64;60.43;99465.97;4893394;28;96789;-81
2021/08/01 09:01:06;;;;;;;7.05;2.78;;;;;;;20.69;61.09;99460.25;4894197;28;98265;-83
2021/08/01 09:03:33;;;;;;;6.97;3.20;;;;;;;20.69;61.69;99458.41;4928601;28;101495;-80
2021/08/01 09:05:59;;;;;;;5.35;3.22;;;;;;;20.66;61.67;99469.34;4929695;28;97769;-82
2021/08/01 09:08:26;;;;;;;6.03;3.17;;;;;;;20.73;61.23;99469.63;4908745;28;97293;-80
2021/08/01 09:10:53;;;;;;;7.03;3.08;;;;;;;20.50;60.03;99479.66;4929233;28;98088;-84
2021/08/01 09:13:53;;;;;;;3.40;2.72;;;;;;;20.47;60.26;99463.94;4906952;28;98562;-80
2021/08/01 09:16:21;;;;;;;6.65;2.80;;;;;;;20.47;61.57;99455.94;4921646;28;96871;-81
2021/08/01 09:18:47;;;;;;;5.10;2.65;;;;;;;20.69;61.55;99476.25;4924971;28;97539;-85
2021/08/01 09:21:31;;;;;;;4.10;2.95;;;;;;;20.74;61.87;99472.19;4893278;28;101470;-81
2021/08/01 09:23:57;;;;;;;5.93;3.00;;;;;;;20.45;62.92;99482.75;4901428;28;97442;-80
2021/08/01 09:26:22;;;;;;;6.63;3.30;;;;;;;20.46;62.19;99496.91;4926880;28;96835;-80
2021/08/01 09:29:02;;;;;;;7.20;3.60;;;;;;;20.54;62.32;99484.63;4926296;28;98223;-80
2021/08/01 09:31:27;;;;;;;7.55;3.22;;;;;;;20.44;62.23;99483.69;4935444;28;98161;-78
2021/08/01 09:33:54;;;;;;;8.13;3.33;;;;;;;20.35;63.15;99488.03;4910364;28;99814;-80
2021/08/01 09:36:22;;;;;;;11.70;3.70;;;;;;;20.43;63.54;99492.69;4937533;28;98119;-82
2021/08/01 09:38:55;;;;;;;5.55;3.15;;;;;;;20.48;61.83;99486.97;4926643;28;96822;-80
2021/08/01 09:41:24;;;;;;;9.88;3.15;;;;;;;20.30;61.11;99470.75;4927001;28;101919;-82
2021/08/01 09:43:55;;;;;;;7.55;3.70;;;;;;;20.27;62.33;99466.53;4925922;28;97884;-76
2021/08/01 09:46:21;;;;;;;7.37;3.37;;;;;;;20.40;62.16;99466.31;4913394;28;96962;-77
2021/08/01 09:49:08;;;;;;;4.40;3.00;;;;;;;20.22;64.10;99455.44;4930420;28;96990;-77
2021/08/01 09:51:44;;;;;;;6.78;2.88;;;;;;;20.07;64.30;99443.44;4912133;28;100458;-76
2021/08/01 09:54:12;;;;;;;7.68;2.97;;;;;;;20.06;63.98;99447.94;4904127;28;98458;-82
2021/08/01 09:56:38;;;;;;;5.78;2.55;;;;;;;19.93;64.03;99446.50;4893839;28;96903;-76
2021/08/01 09:59:17;;;;;;;3.67;2.15;;;;;;;20.07;63.88;99439.00;4926208;28;97518;-76
2021/08/01 10:01:48;;;;;;;9.25;2.40;;;;;;;20.04;63.97;99425.94;4906646;28;101476;-76
2021/08/01 10:04:20;;;;;;;;;;;;;;;20.05;64.49;99413.47;4923110;28;98572;-76
2021/08/01 10:07:13;;;;;;;6.35;2.33;;;;;;;20.09;64.06;99399.72;4891900;28;98180;-77
2021/08/01 10:09:44;;;;;;;8.45;2.65;;;;;;;20.31;63.36;99414.66;4891802;28;96888;-76
2021/08/01 10:12:10;;;;;;;;;;;;;;;20.28;64.40;99414.09;4889572;28;101195;-77
2021/08/01 10:14:37;;;;;;;4.63;3.00;;;;;;;20.25;64.97;99409.03;4891299;28;101644;-77
2021/08/01 10:17:04;;;;;;;5.97;3.28;;;;;;;20.33;65.21;99403.84;4907644;28;96760;-77
2021/08/01 10:19:30;;;;;;;7.25;3.45;;;;;;;20.31;65.51;99409.34;4891359;28;97000;-77
2021/08/01 10:21:59;;;;;;;4.10;2.58;;;;;;;20.25;65.05;99401.06;4907072;28;101828;-76
2021/08/01 10:24:38;;;;;;;7.25;2.65;;;;;;;20.31;65.08;99414.66;4906512;28;100987;-77
2021/08/01 10:27:05;;;;;;;7.85;2.90;;;;;;;20.29;65.32;99419.28;4907869;28;97401;-76
2021/08/01 10:29:47;;;;;;;4.68;3.45;;;;;;;20.27;65.29;99439.88;4894127;28;96857;-81
2021/08/01 10:32:13;;;;;;;;;;;;;;;20.18;65.82;99454.00;4895208;28;101580;-77
2021/08/01 10:35:09;;;;;;;5.95;2.95;;;;;;;20.27;65.45;99436.38;4908740;28;97905;-81
2021/08/01 10:37:39;;;;;;;5.55;2.72;;;;;;;20.23;65.76;99438.47;4910135;28;96815;-79
2021/08/01 10:40:07;;;;;;;7.30;2.70;;;;;;;20.18;65.30;99445.19;4945313;28;97559;-80
2021/08/01 10:42:33;;;;;;;5.03;2.70;;;;;;;20.34;64.77;99450.84;4929759;28;101698;-79
2021/08/01 10:44:59;;;;;;;7.57;2.83;;;;;;;20.25;65.09;99443.69;4913354;28;100564;-79
2021/08/01 10:47:25;;;;;;;4.18;2.60;;;;;;;20.23;65.06;99433.16;4887474;28;97634;-79
2021/08/01 10:49:51;;;;;;;3.78;2.50;;;;;;;20.19;64.91;99434.41;4913902;28;98046;-81
2021/08/01 10:52:18;;;;;;;4.00;2.63;;;;;;;20.19;65.05;99434.41;4929504;28;101287;-80
2021/08/01 10:54:57;;;;;;;5.13;2.42;;;;;;;20.11;65.33;99437.72;4929328;28;101972;-77
2021/08/01 10:57:24;;;;;;;6.95;2.67;;;;;;;20.12;65.12;99431.41;4943967;28;96820;-79
2021/08/01 10:59:49;;;;;;;8.07;2.60;;;;;;;19.99;65.77;99436.16;4927641;28;97754;-80
2021/08/01 11:02:21;;;;;;;9.05;3.08;;;;;;;20.06;65.46;99420.47;4905217;28;101238;-81
2021/08/01 11:04:50;;;;;;;5.32;2.20;;;;;;;20.09;65.21;99420.19;4925323;28;101015;-78
2021/08/01 11:07:28;;;;;;;4.82;2.25;;;;;;;20.05;65.10;99422.28;4926404;28;97338;-80
2021/08/01 11:10:12;;;;;;;3.97;1.92;;;;;;;20.27;64.61;99413.22;4910712;28;96923;-79
2021/08/01 11:12:41;;;;;;;8.20;2.33;;;;;;;20.19;64.91;99398.91;4909242;28;101745;-78
2021/08/01 11:15:10;;;;;;;5.50;2.50;;;;;;;20.21;64.90;99400.47;4926345;28;101440;-80
2021/08/01 11:17:51;;;;;;;3.15;2.00;;;;;;;20.29;63.97;99397.13;4926197;28;97243;-78
2021/08/01 11:20:17;;;;;;;2.45;1.90;;;;;;;20.17;64.78;99396.38;4913568;28;96885;-79
2021/08/01 11:22:43;;;;;;;5.22;1.95;;;;;;;20.26;64.41;99408.06;4928880;28;98649;-78
2021/08/01 11:25:30;;;;;;;4.00;2.00;;;;;;;20.27;64.58;99401.72;4929664;28;101200;-80
2021/08/01 11:28:08;;;;;;;4.40;2.25;;;;;;;20.22;64.58;99402.16;4928795;28;96815;-79
2021/08/01 11:30:52;;;;;;;5.05;2.15;;;;;;;20.26;64.55;99397.41;4901557;28;97429;-78
2021/08/01 11:33:44;;;;;;;4.07;2.03;;;;;;;20.30;64.70;99398.78;4926241;28;99835;-79
2021/08/01 11:36:13;;;;;;;4.88;2.17;;;;;;;20.32;64.08;99392.34;4943016;28;98475;-82
2021/08/01 11:38:48;;;;;;;5.43;2.60;;;;;;;20.40;63.79;99394.34;4942935;28;97148;-80